createdAt,value
2022-08-30T00:01:28.755Z,59.70
2022-08-30T00:04:30.811Z,59.70
2022-08-30T00:07:32.808Z,59.00
2022-08-30T00:10:34.917Z,59.40
2022-08-30T00:13:42.666Z,58.50
2022-08-30T00:16:44.758Z,58.40
2022-08-30T00:19:46.797Z,58.40
2022-08-30T00:22:49.324Z,59.60
2022-08-30T00:25:53.648Z,59.80
2022-08-30T00:28:55.601Z,58.40
2022-08-30T00:31:57.769Z,59.00
2022-08-30T00:34:59.891Z,59.60
2022-08-30T00:38:02.026Z,60.20
2022-08-30T00:41:06.176Z,60.10
2022-08-30T00:44:08.077Z,60.20
2022-08-30T00:47:10.888Z,59.60
2022-08-30T00:50:15.064Z,59.60
2022-08-30T00:53:21.704Z,60.00
2022-08-30T00:56:28.825Z,60.80
2022-08-30T00:59:31.852Z,59.40
2022-08-30T01:02:34.081Z,60.60
2022-08-30T01:05:39.693Z,61.10
2022-08-30T01:08:42.707Z,60.00
2022-08-30T01:11:46.246Z,61.30
2022-08-30T01:14:49.100Z,61.50
2022-08-30T01:17:51.220Z,61.30
2022-08-30T01:21:10.974Z,61.60
2022-08-30T01:24:13.676Z,62.50
2022-08-30T01:27:17.567Z,62.60
2022-08-30T01:30:19.928Z,60.60
2022-08-30T01:33:22.742Z,60.60
2022-08-30T01:36:24.943Z,60.70
2022-08-30T01:39:27.318Z,61.40
2022-08-30T01:42:29.382Z,61.90
2022-08-30T01:45:31.311Z,61.70
2022-08-30T01:48:33.716Z,61.70
2022-08-30T01:51:38.476Z,61.70
2022-08-30T01:54:42.724Z,61.20
2022-08-30T01:57:44.700Z,61.40
2022-08-30T02:00:46.647Z,61.50
2022-08-30T02:03:49.006Z,61.30
2022-08-30T02:06:51.060Z,62.50
2022-08-30T02:09:54.132Z,60.90
2022-08-30T02:12:56.218Z,61.50
2022-08-30T02:15:58.698Z,60.90
2022-08-30T02:19:00.684Z,60.30
2022-08-30T02:22:02.904Z,61.20
2022-08-30T02:25:07.145Z,61.90
2022-08-30T02:28:22.674Z,62.20
2022-08-30T02:31:27.009Z,60.80
2022-08-30T02:34:28.959Z,61.60
2022-08-30T02:37:30.955Z,61.70
2022-08-30T02:40:34.289Z,61.30
2022-08-30T02:43:36.269Z,61.90
2022-08-30T02:46:38.669Z,59.60
2022-08-30T02:49:40.612Z,60.20
2022-08-30T02:52:42.810Z,61.20
2022-08-30T02:55:47.893Z,61.60
2022-08-30T02:58:49.759Z,62.50
2022-08-30T03:01:51.664Z,62.90
2022-08-30T03:04:53.660Z,62.10
2022-08-30T03:07:55.728Z,62.10
2022-08-30T03:10:57.698Z,61.90
2022-08-30T03:13:59.686Z,62.30
2022-08-30T03:17:01.934Z,61.30
2022-08-30T03:20:04.834Z,61.30
2022-08-30T03:23:10.274Z,62.10
2022-08-30T03:26:23.298Z,61.90
2022-08-30T03:29:25.526Z,61.90
2022-08-30T03:32:27.454Z,62.20
2022-08-30T03:35:33.307Z,61.60
2022-08-30T03:38:36.170Z,62.60
2022-08-30T03:41:38.122Z,62.40
2022-08-30T03:44:41.270Z,61.70
2022-08-30T03:47:43.582Z,60.20
2022-08-30T03:50:45.533Z,60.90
2022-08-30T03:53:47.358Z,61.90
2022-08-30T03:56:49.401Z,62.30
2022-08-30T03:59:51.455Z,61.80
2022-08-30T04:02:53.456Z,62.30
2022-08-30T04:05:56.155Z,62.00
2022-08-30T04:08:58.033Z,62.30
2022-08-30T04:11:59.911Z,62.70
2022-08-30T04:15:02.362Z,62.70
2022-08-30T04:18:04.255Z,63.90
2022-08-30T04:21:06.587Z,63.50
2022-08-30T04:24:09.094Z,63.20
2022-08-30T04:27:11.110Z,63.40
2022-08-30T04:30:17.035Z,63.40
2022-08-30T04:33:19.966Z,63.50
2022-08-30T04:36:21.966Z,63.80
2022-08-30T04:39:26.214Z,62.30
2022-08-30T04:42:30.833Z,61.60
2022-08-30T04:45:33.088Z,62.20
2022-08-30T04:48:36.816Z,60.20
2022-08-30T04:51:38.988Z,60.20
2022-08-30T04:54:40.957Z,60.00
2022-08-30T04:57:43.286Z,60.20
2022-08-30T05:00:45.329Z,65.10
2022-08-30T05:03:49.167Z,67.40
2022-08-30T05:06:51.363Z,68.50
2022-08-30T05:09:53.310Z,68.30
2022-08-30T05:12:56.251Z,68.50
2022-08-30T05:15:58.703Z,67.90
2022-08-30T05:19:00.726Z,67.90
2022-08-30T05:22:02.740Z,69.10
2022-08-30T05:25:06.267Z,67.70
2022-08-30T05:28:09.249Z,67.40
2022-08-30T05:31:17.689Z,67.60
2022-08-30T05:34:28.756Z,68.20
2022-08-30T05:37:30.738Z,66.10
2022-08-30T05:40:32.815Z,64.70
2022-08-30T05:43:35.415Z,65.10
2022-08-30T05:46:38.252Z,67.30
2022-08-30T05:49:40.221Z,64.40
2022-08-30T05:52:43.995Z,64.00
2022-08-30T05:55:46.072Z,65.50
2022-08-30T06:01:58.081Z,65.70
2022-08-30T06:05:01.885Z,66.00
2022-08-30T06:08:04.209Z,64.80
2022-08-30T06:11:06.501Z,63.60
2022-08-30T06:14:09.033Z,65.20
2022-08-30T06:17:12.066Z,65.40
2022-08-30T06:20:16.535Z,65.20
2022-08-30T06:23:19.246Z,64.20
2022-08-30T06:26:23.925Z,61.90
2022-08-30T06:29:26.006Z,61.80
2022-08-30T06:32:27.915Z,61.10
2022-08-30T06:35:37.989Z,59.20
2022-08-30T06:38:44.255Z,56.60
2022-08-30T06:41:46.413Z,54.30
2022-08-30T06:45:02.793Z,56.00
2022-08-30T06:48:12.930Z,52.40
2022-08-30T06:51:15.335Z,51.50
2022-08-30T06:54:17.453Z,51.70
2022-08-30T06:57:23.487Z,54.00
2022-08-30T07:00:25.638Z,53.50
2022-08-30T07:03:27.809Z,54.40
2022-08-30T07:06:30.596Z,54.60
2022-08-30T07:12:35.381Z,55.40
2022-08-30T07:15:40.420Z,55.70
2022-08-30T07:18:42.525Z,54.20
2022-08-30T07:21:44.719Z,53.00
2022-08-30T07:24:47.829Z,52.80
2022-08-30T07:27:51.212Z,57.10
2022-08-30T07:30:53.187Z,53.00
2022-08-30T07:33:55.963Z,51.70
2022-08-30T07:36:58.104Z,48.40
2022-08-30T07:40:00.237Z,48.10
2022-08-30T07:43:02.389Z,51.40
2022-08-30T07:46:07.224Z,51.10
2022-08-30T07:49:11.240Z,49.80
2022-08-30T07:52:13.526Z,48.90
2022-08-30T07:55:15.749Z,48.20
2022-08-30T07:58:18.343Z,48.20
2022-08-30T08:01:22.539Z,47.30
2022-08-30T08:04:24.611Z,46.80
2022-08-30T08:07:26.550Z,47.90
2022-08-30T08:10:28.717Z,47.00
2022-08-30T08:13:32.737Z,46.40
2022-08-30T08:16:38.965Z,51.20
2022-08-30T08:19:41.016Z,47.40
2022-08-30T08:22:43.788Z,49.50
2022-08-30T08:25:45.839Z,49.10
2022-08-30T08:28:48.092Z,48.90
2022-08-30T08:31:50.459Z,44.90
2022-08-30T08:34:52.558Z,44.60
2022-08-30T08:37:54.631Z,44.20
2022-08-30T08:41:25.478Z,46.00
2022-08-30T08:44:39.884Z,42.00
2022-08-30T08:47:57.213Z,42.20
2022-08-30T08:51:02.550Z,41.20
2022-08-30T08:54:21.413Z,42.50
2022-08-30T08:57:24.761Z,39.60
2022-08-30T09:00:26.997Z,40.20
2022-08-30T09:03:30.034Z,41.70
2022-08-30T09:06:50.833Z,39.60
2022-08-30T09:09:53.001Z,39.20
2022-08-30T09:12:59.771Z,40.20
2022-08-30T09:16:02.296Z,39.50
2022-08-30T09:19:04.382Z,43.00
2022-08-30T09:22:18.729Z,41.40
2022-08-30T09:25:30.846Z,41.80
2022-08-30T09:28:44.057Z,41.80
2022-08-30T09:32:01.291Z,40.70
2022-08-30T09:35:20.966Z,40.70
2022-08-30T09:38:33.535Z,42.50
2022-08-30T09:41:39.780Z,40.00
2022-08-30T09:44:42.611Z,39.40
2022-08-30T09:47:44.984Z,39.50
2022-08-30T09:50:55.002Z,39.20
2022-08-30T09:54:31.765Z,41.00
2022-08-30T09:57:55.676Z,39.10
2022-08-30T10:01:13.902Z,38.80
2022-08-30T10:04:43.767Z,42.20
2022-08-30T10:07:54.697Z,40.70
2022-08-30T10:11:07.139Z,39.00
2022-08-30T10:14:40.356Z,40.80
2022-08-30T10:18:01.982Z,38.00
2022-08-30T10:21:34.554Z,40.90
2022-08-30T10:24:42.735Z,38.20
2022-08-30T10:27:50.604Z,37.80
2022-08-30T10:31:00.697Z,37.80
2022-08-30T10:34:12.191Z,38.30
2022-08-30T10:37:27.146Z,39.20
2022-08-30T10:40:37.505Z,38.60
2022-08-30T10:43:54.805Z,37.90
2022-08-30T10:47:04.405Z,37.20
2022-08-30T11:03:32.240Z,38.00
2022-08-30T11:07:16.336Z,37.70
2022-08-30T11:10:20.908Z,38.70
2022-08-30T11:13:28.426Z,39.60
2022-08-30T11:16:43.497Z,38.10
2022-08-30T11:19:45.606Z,38.80
2022-08-30T11:23:20.976Z,37.20
2022-08-30T11:26:45.672Z,39.90
2022-08-30T11:29:48.276Z,38.40
2022-08-30T11:33:09.370Z,38.40
2022-08-30T11:36:37.350Z,39.50
2022-08-30T11:39:49.055Z,41.70
2022-08-30T11:42:53.407Z,41.60
2022-08-30T11:46:14.609Z,42.40
2022-08-30T11:49:19.452Z,41.00
2022-08-30T11:52:36.704Z,40.60
2022-08-30T11:56:16.245Z,39.00
2022-08-30T11:59:36.329Z,38.70
2022-08-30T12:02:53.029Z,41.10
2022-08-30T12:06:05.087Z,38.90
2022-08-30T12:09:11.284Z,41.90
2022-08-30T12:12:38.705Z,42.00
2022-08-30T12:16:17.969Z,37.80
2022-08-30T12:19:21.248Z,40.70
2022-08-30T12:22:23.695Z,38.70
2022-08-30T12:25:32.557Z,38.10
2022-08-30T12:28:34.442Z,37.80
2022-08-30T12:31:49.237Z,37.80
2022-08-30T12:35:01.203Z,39.20
2022-08-30T12:38:13.613Z,38.60
2022-08-30T12:41:20.271Z,39.00
2022-08-30T12:44:27.748Z,37.40
2022-08-30T12:47:44.040Z,37.30
2022-08-30T12:50:50.896Z,40.50
2022-08-30T12:53:52.977Z,39.20
2022-08-30T12:57:18.963Z,38.90
2022-08-30T13:00:37.982Z,38.80
2022-08-30T13:03:39.936Z,38.70
2022-08-30T13:06:50.392Z,37.40
2022-08-30T13:10:01.582Z,37.90
2022-08-30T13:13:06.973Z,39.10
2022-08-30T13:16:20.860Z,39.00
2022-08-30T13:19:33.636Z,37.60
2022-08-30T13:22:37.864Z,38.20
2022-08-30T13:25:40.369Z,40.00
2022-08-30T13:28:53.127Z,38.20
2022-08-30T13:31:56.167Z,37.00
2022-08-30T13:34:58.194Z,38.50
2022-08-30T13:38:01.583Z,39.50
2022-08-30T13:41:03.451Z,36.70
2022-08-30T13:44:11.174Z,39.70
2022-08-30T13:50:36.494Z,39.90
2022-08-30T13:53:54.406Z,38.20
2022-08-30T13:56:56.906Z,37.50
2022-08-30T13:59:58.851Z,37.00
2022-08-30T14:03:02.140Z,38.70
2022-08-30T14:06:31.847Z,37.40
2022-08-30T14:09:27.917Z,37.40
2022-08-30T14:16:26.585Z,38.20
2022-08-30T14:19:16.308Z,37.70
2022-08-30T14:22:20.435Z,36.90
2022-08-30T14:25:24.690Z,38.50
2022-08-30T14:28:26.921Z,41.00
2022-08-30T14:31:29.049Z,37.20
2022-08-30T14:34:33.716Z,37.50
2022-08-30T14:37:35.651Z,38.60
2022-08-30T14:40:37.540Z,37.40
2022-08-30T14:43:39.976Z,37.70
2022-08-30T14:46:43.474Z,38.00
2022-08-30T14:49:45.551Z,38.30
2022-08-30T14:52:48.325Z,37.50
2022-08-30T14:55:50.323Z,40.80
2022-08-30T14:58:54.824Z,37.40
2022-08-30T15:01:57.323Z,38.20
2022-08-30T15:04:59.252Z,38.50
2022-08-30T15:08:01.142Z,36.90
2022-08-30T15:11:08.647Z,41.00
2022-08-30T15:14:15.828Z,37.80
2022-08-30T15:17:18.054Z,36.70
2022-08-30T15:20:20.222Z,39.20
2022-08-30T15:23:22.870Z,37.60
2022-08-30T15:26:26.908Z,37.20
2022-08-30T15:29:32.004Z,37.00
2022-08-30T15:32:34.713Z,38.50
2022-08-30T15:35:36.621Z,36.40
2022-08-30T15:38:38.831Z,37.70
2022-08-30T15:41:44.214Z,38.00
2022-08-30T15:44:50.478Z,38.10
2022-08-30T15:47:52.598Z,37.20
2022-08-30T15:50:58.478Z,36.50
2022-08-30T15:54:00.442Z,36.20
2022-08-30T15:57:02.285Z,38.10
2022-08-30T16:00:08.535Z,37.70
2022-08-30T16:03:11.855Z,37.10
2022-08-30T16:06:16.318Z,40.40
2022-08-30T16:09:18.221Z,37.60
2022-08-30T16:12:23.722Z,38.40
2022-08-30T16:15:26.451Z,38.60
2022-08-30T16:18:28.400Z,37.20
2022-08-30T16:24:47.892Z,38.10
2022-08-30T16:27:49.826Z,38.00
2022-08-30T16:30:52.340Z,37.30
2022-08-30T16:33:55.126Z,37.40
2022-08-30T16:36:59.323Z,38.70
2022-08-30T16:40:01.589Z,40.60
2022-08-30T16:43:04.395Z,39.30
2022-08-30T16:46:11.814Z,37.90
2022-08-30T16:49:13.765Z,38.40
2022-08-30T16:52:15.932Z,42.50
2022-08-30T16:55:20.328Z,42.80
2022-08-30T16:58:24.625Z,39.60
2022-08-30T17:01:29.159Z,40.10
2022-08-30T17:04:31.242Z,39.00
2022-08-30T17:07:33.138Z,39.60
2022-08-30T17:10:35.234Z,40.80
2022-08-30T17:13:37.559Z,40.90
2022-08-30T17:16:41.435Z,40.00
2022-08-30T17:19:44.897Z,39.70
2022-08-30T17:22:46.771Z,39.40
2022-08-30T17:25:49.674Z,41.60
2022-08-30T17:28:51.914Z,41.40
2022-08-30T17:31:54.203Z,42.80
2022-08-30T17:34:56.070Z,41.70
2022-08-30T17:38:00.531Z,42.60
2022-08-30T17:41:09.219Z,43.10
2022-08-30T17:44:12.070Z,46.40
2022-08-30T17:47:14.007Z,46.40
2022-08-30T17:50:15.919Z,48.20
2022-08-30T17:53:21.409Z,49.80
2022-08-30T17:56:34.077Z,46.10
2022-08-30T17:59:38.199Z,47.80
2022-08-30T18:02:41.363Z,49.00
2022-08-30T18:05:43.365Z,50.40
2022-08-30T18:08:48.658Z,48.20
2022-08-30T18:11:56.221Z,50.30
2022-08-30T18:15:23.015Z,50.00
2022-08-30T18:18:25.157Z,49.70
2022-08-30T18:21:28.660Z,49.70
2022-08-30T18:24:31.564Z,51.10
2022-08-30T18:27:33.790Z,50.30
2022-08-30T18:30:41.368Z,50.70
2022-08-30T18:33:47.331Z,49.80
2022-08-30T18:36:49.243Z,48.80
2022-08-30T18:39:51.126Z,51.40
2022-08-30T18:42:52.965Z,48.70
2022-08-30T18:45:55.184Z,49.20
2022-08-30T18:49:03.615Z,45.00
2022-08-30T18:52:09.465Z,49.00
2022-08-30T18:55:11.324Z,49.70
2022-08-30T18:58:13.226Z,47.10
2022-08-30T19:01:22.770Z,49.10
2022-08-30T19:04:35.043Z,50.90
2022-08-30T19:07:37.931Z,48.50
2022-08-30T19:10:47.462Z,45.90
2022-08-30T19:13:50.063Z,48.00
2022-08-30T19:16:53.668Z,45.50
2022-08-30T19:19:55.795Z,45.30
2022-08-30T19:23:09.951Z,45.90
2022-08-30T19:26:22.302Z,49.60
2022-08-30T19:29:24.343Z,49.30
2022-08-30T19:32:26.471Z,44.90
2022-08-30T19:35:29.958Z,45.90
2022-08-30T19:38:34.880Z,45.30
2022-08-30T19:41:37.200Z,46.00
2022-08-30T19:44:39.326Z,45.10
2022-08-30T19:47:41.500Z,45.00
2022-08-30T19:50:43.438Z,45.80
2022-08-30T19:53:46.542Z,47.00
2022-08-30T19:56:48.405Z,46.40
2022-08-30T19:59:51.685Z,44.90
2022-08-30T20:02:53.562Z,47.30
2022-08-30T20:05:56.525Z,48.90
2022-08-30T20:08:59.898Z,44.40
2022-08-30T20:12:03.136Z,45.20
2022-08-30T20:15:07.721Z,45.50
2022-08-30T20:18:14.755Z,48.90
2022-08-30T20:21:17.034Z,49.50
2022-08-30T20:24:18.946Z,49.00
2022-08-30T20:27:20.812Z,47.60
2022-08-30T20:30:22.807Z,47.60
2022-08-30T20:33:25.747Z,47.00
2022-08-30T20:36:27.643Z,44.50
2022-08-30T20:39:31.038Z,45.40
2022-08-30T20:42:32.899Z,44.50
2022-08-30T20:45:35.019Z,45.20
2022-08-30T20:48:37.611Z,45.30
2022-08-30T20:51:39.774Z,45.80
2022-08-30T20:54:44.221Z,46.50
2022-08-30T20:57:46.097Z,48.40
2022-08-30T21:00:52.929Z,48.00
2022-08-30T21:03:54.799Z,45.20
2022-08-30T21:06:57.396Z,48.60
2022-08-30T21:10:07.001Z,47.90
2022-08-30T21:13:10.374Z,49.00
2022-08-30T21:16:12.513Z,48.30
2022-08-30T21:19:15.289Z,46.40
2022-08-30T21:22:17.238Z,46.50
2022-08-30T21:25:20.784Z,49.10
2022-08-30T21:28:22.620Z,50.60
2022-08-30T21:31:27.309Z,47.80
2022-08-30T21:34:29.240Z,50.40
2022-08-30T21:37:34.248Z,50.60
2022-08-30T21:40:38.101Z,51.10
2022-08-30T21:43:40.116Z,51.30
2022-08-30T21:46:42.028Z,51.50
2022-08-30T21:49:43.973Z,50.30
2022-08-30T21:52:45.815Z,52.40
2022-08-30T21:55:48.225Z,53.00
2022-08-30T21:58:50.709Z,53.10
2022-08-30T22:01:52.873Z,53.20
2022-08-30T22:04:54.988Z,54.70
2022-08-30T22:07:56.895Z,54.10
2022-08-30T22:10:58.876Z,55.00
2022-08-30T22:14:01.567Z,52.80
2022-08-30T22:17:03.666Z,52.80
2022-08-30T22:20:06.371Z,53.60
2022-08-30T22:23:08.288Z,53.30
2022-08-30T22:26:12.823Z,51.50
2022-08-30T22:29:15.187Z,50.60
2022-08-30T22:32:18.357Z,49.00
2022-08-30T22:35:20.454Z,47.40
2022-08-30T22:38:26.110Z,48.70
2022-08-30T22:41:31.044Z,49.40
2022-08-30T22:44:33.474Z,47.00
2022-08-30T22:47:35.481Z,47.00
2022-08-30T22:50:37.989Z,50.30
2022-08-30T22:53:40.515Z,47.40
2022-08-30T22:56:42.988Z,48.10
2022-08-30T22:59:44.902Z,46.20
2022-08-30T23:02:51.952Z,45.30
2022-08-30T23:05:53.822Z,46.20
2022-08-30T23:08:56.334Z,45.60
2022-08-30T23:11:58.213Z,48.10
2022-08-30T23:15:00.164Z,48.50
2022-08-30T23:18:02.485Z,47.70
2022-08-30T23:21:14.368Z,49.20
2022-08-30T23:24:16.253Z,55.30
2022-08-30T23:27:18.222Z,57.80
2022-08-30T23:30:22.824Z,61.90
2022-08-30T23:33:24.769Z,68.50
2022-08-30T23:36:26.656Z,73.00
2022-08-30T23:39:28.515Z,75.00
2022-08-30T23:42:30.505Z,76.00
2022-08-30T23:45:32.558Z,77.90
2022-08-30T23:48:34.642Z,77.50
2022-08-30T23:51:37.892Z,77.60
2022-08-30T23:54:39.818Z,79.10
2022-08-30T23:57:41.793Z,78.90
